Time;durP1;ratioP1;P1;durP2;ratioP2;P2;SDS_P1;SDS_P2;PMS_P1;PMS_P2;Temp;Humidity;BMP_temperature;BMP_pressure;BME280_temperature;BME280_humidity;BME280_pressure;Samples;Min_cycle;Max_cycle;Signal;HPM_P1;HPM_P2
2023/06/19 00:00:15;;;;;;;1999.90;999.90;;;17.70;99.90;;;;;;4955278;29;20113;-70
2023/06/19 00:02:41;;;;;;;1999.90;999.90;;;17.60;99.90;;;;;;4953413;29;20027;-71
2023/06/19 00:05:08;;;;;;;1999.90;999.90;;;17.60;99.90;;;;;;4955312;28;20479;-70
2023/06/19 00:07:37;;;;;;;1999.90;999.90;;;17.50;99.90;;;;;;4955177;29;20030;-70
2023/06/19 00:10:03;;;;;;;1999.90;999.90;;;17.40;99.90;;;;;;4955281;29;20067;-70
2023/06/19 00:12:29;;;;;;;1999.90;999.90;;;17.30;99.90;;;;;;4959634;28;20039;-73
2023/06/19 00:14:55;;;;;;;1999.90;999.90;;;17.10;99.90;;;;;;4956754;28;20501;-73
2023/06/19 00:17:20;;;;;;;1999.90;999.90;;;17.10;99.90;;;;;;4974403;28;20019;-70
2023/06/19 00:19:48;;;;;;;1999.90;999.90;;;17.00;99.90;;;;;;4974680;28;20485;-70
2023/06/19 00:22:14;;;;;;;1999.90;999.90;;;17.00;99.90;;;;;;4974448;28;20037;-70
2023/06/19 00:24:39;;;;;;;1999.90;999.90;;;17.00;99.90;;;;;;4973976;28;20394;-73
2023/06/19 00:27:05;;;;;;;1999.90;999.90;;;16.90;99.90;;;;;;4974195;28;20473;-70
2023/06/19 00:29:32;;;;;;;1999.90;999.90;;;16.80;99.90;;;;;;4974352;28;20027;-70
2023/06/19 00:31:59;;;;;;;1999.90;999.90;;;16.80;99.90;;;;;;4959026;28;20028;-70
2023/06/19 00:34:25;;;;;;;1999.90;999.90;;;16.80;99.90;;;;;;4954603;29;20023;-70
2023/06/19 00:36:56;;;;;;;1999.90;999.90;;;16.80;99.90;;;;;;4937281;29;20034;-70
2023/06/19 00:39:22;;;;;;;1999.90;999.90;;;16.80;99.90;;;;;;4954915;29;20026;-73
2023/06/19 00:41:49;;;;;;;1999.90;999.90;;;16.90;99.90;;;;;;4953557;29;20031;-73
2023/06/19 00:44:15;;;;;;;1999.90;999.90;;;16.90;99.90;;;;;;4954425;29;20031;-70
2023/06/19 00:46:41;;;;;;;1999.90;999.90;;;16.90;99.90;;;;;;4954441;29;20387;-70
2023/06/19 00:49:08;;;;;;;1999.90;999.90;;;16.90;99.90;;;;;;4954356;29;20105;-70
2023/06/19 00:51:33;;;;;;;1999.90;999.90;;;16.90;99.90;;;;;;4955117;29;20030;-73
2023/06/19 00:53:59;;;;;;;1999.90;999.90;;;17.00;99.90;;;;;;4954483;29;20032;-73
2023/06/19 00:56:25;;;;;;;1999.90;999.90;;;17.00;99.90;;;;;;4954582;29;20090;-70
2023/06/19 00:58:52;;;;;;;1999.90;999.90;;;17.00;99.90;;;;;;4954419;29;20019;-70
2023/06/19 01:01:20;;;;;;;1999.90;999.90;;;17.00;99.90;;;;;;4954198;28;20027;-70
2023/06/19 01:03:46;;;;;;;1999.90;999.90;;;17.10;99.90;;;;;;4954791;29;20023;-70
2023/06/19 01:06:21;;;;;;;1999.90;999.90;;;17.10;99.90;;;;;;4954371;29;20086;-74
2023/06/19 01:08:59;;;;;;;1999.90;999.90;;;17.00;99.90;;;;;;4954403;29;20465;-70
2023/06/19 01:11:32;;;;;;;1999.90;999.90;;;17.00;99.90;;;;;;4954398;29;20027;-70
2023/06/19 01:14:14;;;;;;;1999.90;999.90;;;17.00;99.90;;;;;;4954315;29;20434;-70
2023/06/19 01:16:40;;;;;;;1999.90;999.90;;;17.00;99.90;;;;;;4954646;28;20035;-70
2023/06/19 01:19:10;;;;;;;1999.90;999.90;;;17.00;99.90;;;;;;4957421;29;20364;-73
2023/06/19 01:21:36;;;;;;;1999.90;999.90;;;17.10;99.90;;;;;;4958510;29;20034;-70
2023/06/19 01:24:02;;;;;;;1999.90;999.90;;;17.10;99.90;;;;;;4958202;29;20034;-70
2023/06/19 01:26:28;;;;;;;1999.90;999.90;;;17.00;99.90;;;;;;4939479;29;20038;-70
2023/06/19 01:28:55;;;;;;;1999.90;999.90;;;17.00;99.90;;;;;;4958286;29;20027;-70
2023/06/19 01:31:26;;;;;;;1999.90;999.90;;;17.00;99.90;;;;;;4957799;29;20023;-73
2023/06/19 01:33:53;;;;;;;1999.90;999.90;;;17.00;99.90;;;;;;4957877;29;20114;-70
2023/06/19 01:36:20;;;;;;;1999.90;999.90;;;16.90;99.90;;;;;;4957672;29;20394;-70
2023/06/19 01:38:48;;;;;;;1999.90;999.90;;;16.90;99.90;;;;;;4957870;29;20107;-70
2023/06/19 01:41:15;;;;;;;1999.90;999.90;;;16.90;99.90;;;;;;4957776;29;20394;-70
2023/06/19 01:43:41;;;;;;;1999.90;999.90;;;16.90;99.90;;;;;;4956345;29;20039;-70
2023/06/19 01:46:07;;;;;;;1999.90;999.90;;;16.90;99.90;;;;;;4957333;29;20043;-73
2023/06/19 01:48:35;;;;;;;1999.90;999.90;;;17.00;99.90;;;;;;4957248;29;20113;-70
2023/06/19 01:51:03;;;;;;;1999.90;999.90;;;17.00;99.90;;;;;;4957515;29;20039;-70
2023/06/19 01:53:31;;;;;;;1999.90;999.90;;;17.00;99.90;;;;;;4957902;29;20030;-70
2023/06/19 01:55:56;;;;;;;1999.90;999.90;;;17.00;99.90;;;;;;4957530;28;20045;-70
2023/06/19 01:58:22;;;;;;;1999.90;999.90;;;17.00;99.90;;;;;;4957256;29;20023;-73
2023/06/19 02:00:48;;;;;;;1999.90;999.90;;;17.10;99.90;;;;;;4956952;29;20020;-71
2023/06/19 02:03:13;;;;;;;1999.90;999.90;;;17.20;99.90;;;;;;4957415;28;20031;-70
2023/06/19 02:05:39;;;;;;;1999.90;999.90;;;17.20;99.90;;;;;;4957492;29;20034;-73
2023/06/19 02:08:06;;;;;;;1999.90;999.90;;;17.20;99.90;;;;;;4957386;29;20500;-70
2023/06/19 02:10:31;;;;;;;1999.90;999.90;;;17.20;99.90;;;;;;4956928;29;20039;-73
2023/06/19 02:12:57;;;;;;;1999.90;999.90;;;17.10;99.90;;;;;;4965865;28;20023;-73
2023/06/19 02:15:23;;;;;;;1999.90;999.90;;;17.10;99.90;;;;;;4976466;28;20541;-70
2023/06/19 02:17:49;;;;;;;1999.90;999.90;;;17.20;99.90;;;;;;4976645;28;20030;-73
2023/06/19 02:20:14;;;;;;;1999.90;999.90;;;17.10;99.90;;;;;;4976500;28;20027;-73
2023/06/19 02:22:41;;;;;;;1999.90;999.90;;;17.00;99.90;;;;;;4976109;28;20030;-73
2023/06/19 02:25:07;;;;;;;1999.90;999.90;;;17.00;99.90;;;;;;4976308;28;20023;-73
2023/06/19 02:27:32;;;;;;;1999.90;999.90;;;16.90;99.90;;;;;;4976680;28;20035;-70
2023/06/19 02:29:58;;;;;;;1999.90;999.90;;;16.90;99.90;;;;;;4975505;28;20034;-70
2023/06/19 02:32:24;;;;;;;1999.90;999.90;;;16.90;99.90;;;;;;4975915;28;20466;-70
2023/06/19 02:34:50;;;;;;;1999.90;999.90;;;16.90;99.90;;;;;;4975846;28;20019;-70
2023/06/19 02:37:16;;;;;;;1999.90;999.90;;;17.00;99.90;;;;;;4960097;28;20028;-70
2023/06/19 02:39:41;;;;;;;1999.90;999.90;;;17.00;99.90;;;;;;4957039;29;20027;-73
2023/06/19 02:42:07;;;;;;;1999.90;999.90;;;17.10;99.90;;;;;;4956389;29;20395;-70
2023/06/19 02:44:33;;;;;;;1999.90;999.90;;;17.00;99.90;;;;;;4955822;29;20118;-70
2023/06/19 02:46:58;;;;;;;1999.90;999.90;;;17.10;99.90;;;;;;4956343;29;20110;-70
2023/06/19 02:49:24;;;;;;;1999.90;999.90;;;17.10;99.90;;;;;;4956134;29;20086;-70
2023/06/19 02:51:49;;;;;;;1999.90;999.90;;;17.10;99.90;;;;;;4956704;29;20035;-73
2023/06/19 02:54:15;;;;;;;1999.90;999.90;;;17.10;99.90;;;;;;4956563;29;20038;-70
2023/06/19 02:56:41;;;;;;;1999.90;999.90;;;17.10;99.90;;;;;;4956475;29;20050;-70
2023/06/19 02:59:06;;;;;;;1999.90;999.90;;;17.10;99.90;;;;;;4956022;29;20023;-70
2023/06/19 03:01:33;;;;;;;1999.90;999.90;;;17.10;99.90;;;;;;4955731;28;20034;-73
2023/06/19 03:03:59;;;;;;;1999.90;999.90;;;17.10;99.90;;;;;;4956415;29;20030;-73
2023/06/19 03:06:26;;;;;;;1999.90;999.90;;;17.20;99.90;;;;;;4956067;29;20474;-70
2023/06/19 03:08:52;;;;;;;1999.90;999.90;;;17.20;99.90;;;;;;4956214;29;20020;-73
2023/06/19 03:11:17;;;;;;;1999.90;999.90;;;17.10;99.90;;;;;;4956113;29;20162;-70
2023/06/19 03:13:54;;;;;;;1999.90;999.90;;;17.00;99.90;;;;;;4970525;28;20114;-70
2023/06/19 03:16:21;;;;;;;1999.90;999.90;;;17.00;99.90;;;;;;4975429;28;20170;-70
2023/06/19 03:18:47;;;;;;;1999.90;999.90;;;17.00;99.90;;;;;;4975853;28;20034;-70
2023/06/19 03:21:14;;;;;;;1999.90;999.90;;;17.00;99.90;;;;;;4975339;28;20541;-70
2023/06/19 03:23:42;;;;;;;1999.90;999.90;;;17.00;99.90;;;;;;4975130;28;20501;-70
2023/06/19 03:26:08;;;;;;;1999.90;999.90;;;16.90;99.90;;;;;;4974950;28;20030;-70
2023/06/19 03:28:34;;;;;;;1999.90;999.90;;;16.90;99.90;;;;;;4975557;28;20049;-73
2023/06/19 03:31:00;;;;;;;1999.90;999.90;;;16.90;99.90;;;;;;4967795;28;20522;-70
2023/06/19 03:33:26;;;;;;;1999.90;999.90;;;17.00;99.90;;;;;;4955554;29;20028;-70
2023/06/19 03:35:52;;;;;;;1999.90;999.90;;;17.00;99.90;;;;;;4955507;29;20037;-70
2023/06/19 03:38:17;;;;;;;1999.90;999.90;;;17.00;99.90;;;;;;4955625;29;20071;-73
2023/06/19 03:40:43;;;;;;;1999.90;999.90;;;17.00;99.90;;;;;;4954930;28;20112;-74
2023/06/19 03:43:10;;;;;;;1999.90;999.90;;;17.00;99.90;;;;;;4955283;29;20028;-70
2023/06/19 03:45:36;;;;;;;1999.90;999.90;;;17.00;99.90;;;;;;4954609;29;20031;-71
2023/06/19 03:48:01;;;;;;;1999.90;999.90;;;17.00;99.90;;;;;;4937948;29;20102;-70
2023/06/19 03:50:27;;;;;;;1999.90;999.90;;;17.10;99.90;;;;;;4955332;29;20035;-70
2023/06/19 03:52:52;;;;;;;1999.90;999.90;;;17.10;99.90;;;;;;4955484;29;20402;-71
2023/06/19 03:55:18;;;;;;;1999.90;999.90;;;17.10;99.90;;;;;;4955658;29;20102;-73
2023/06/19 03:57:44;;;;;;;1999.90;999.90;;;17.10;99.90;;;;;;4955454;29;20441;-70
2023/06/19 04:00:11;;;;;;;1999.90;999.90;;;17.20;99.90;;;;;;4955182;29;20034;-70
2023/06/19 04:02:37;;;;;;;1999.90;999.90;;;17.10;99.90;;;;;;4954941;28;20026;-70
2023/06/19 04:05:03;;;;;;;1999.90;999.90;;;17.10;99.90;;;;;;4955914;29;20031;-70
2023/06/19 04:07:29;;;;;;;1999.90;999.90;;;17.00;99.90;;;;;;4955224;29;20380;-73
2023/06/19 04:09:55;;;;;;;1999.90;999.90;;;17.00;99.90;;;;;;4937867;29;20035;-70
2023/06/19 04:12:21;;;;;;;1999.90;999.90;;;17.00;99.90;;;;;;4958636;28;20022;-70
2023/06/19 04:14:46;;;;;;;1999.90;999.90;;;17.00;99.90;;;;;;4974014;28;20035;-70
2023/06/19 04:17:12;;;;;;;1999.90;999.90;;;17.00;99.90;;;;;;4974530;28;20098;-71
2023/06/19 04:19:37;;;;;;;1999.90;999.90;;;17.00;99.90;;;;;;4974623;28;20488;-73
2023/06/19 04:22:03;;;;;;;1999.90;999.90;;;17.00;99.90;;;;;;4974234;28;20030;-70
2023/06/19 04:24:29;;;;;;;1999.90;999.90;;;17.00;99.90;;;;;;4973249;28;20070;-70
2023/06/19 04:26:54;;;;;;;1999.90;999.90;;;17.00;99.90;;;;;;4973428;28;20022;-70
2023/06/19 04:29:20;;;;;;;1999.90;999.90;;;17.00;99.90;;;;;;4974538;28;20485;-70
2023/06/19 04:31:48;;;;;;;1999.90;999.90;;;17.00;99.90;;;;;;4960616;28;20119;-70
2023/06/19 04:34:16;;;;;;;1999.90;999.90;;;17.00;99.90;;;;;;4954692;29;20513;-73
2023/06/19 04:36:42;;;;;;;1999.90;999.90;;;17.00;99.90;;;;;;4953877;28;20098;-70
2023/06/19 04:39:08;;;;;;;1999.90;999.90;;;17.00;99.90;;;;;;4955335;28;20099;-70
2023/06/19 04:41:38;;;;;;;1999.90;999.90;;;17.10;99.90;;;;;;4955274;29;20038;-73
2023/06/19 04:44:07;;;;;;;1999.90;999.90;;;17.00;99.90;;;;;;4953265;28;20078;-70
2023/06/19 04:46:33;;;;;;;1999.90;999.90;;;17.10;99.90;;;;;;4952724;29;20467;-70
2023/06/19 04:48:59;;;;;;;1999.90;999.90;;;17.10;99.90;;;;;;4953368;29;20082;-70
2023/06/19 04:51:26;;;;;;;1999.90;999.90;;;17.10;99.90;;;;;;4952955;28;20118;-70
2023/06/19 04:53:52;;;;;;;1999.90;999.90;;;17.20;99.90;;;;;;4951586;28;20470;-70
2023/06/19 04:56:17;;;;;;;1999.90;999.90;;;17.30;99.90;;;;;;4977779;28;20094;-70
2023/06/19 04:58:47;;;;;;;1999.90;999.90;;;17.30;99.90;;;;;;4961346;28;20019;-73
2023/06/19 05:01:13;;;;;;;1999.90;999.90;;;17.40;99.90;;;;;;4957794;28;20430;-73
2023/06/19 05:03:40;;;;;;;1999.90;999.90;;;17.40;99.90;;;;;;4958730;28;20046;-70
2023/06/19 05:06:06;;;;;;;1999.90;999.90;;;17.40;99.90;;;;;;4957963;29;20575;-70
2023/06/19 05:08:31;;;;;;;1999.90;999.90;;;17.40;99.90;;;;;;4958188;29;20038;-70
2023/06/19 05:11:00;;;;;;;1999.90;999.90;;;17.20;99.90;;;;;;4958077;29;20066;-73
2023/06/19 05:13:25;;;;;;;1999.90;999.90;;;17.20;99.90;;;;;;4970148;28;20027;-73
2023/06/19 05:15:51;;;;;;;1999.90;999.90;;;17.20;99.90;;;;;;4977735;28;20030;-70
2023/06/19 05:18:17;;;;;;;1999.90;999.90;;;17.20;99.90;;;;;;4967308;28;20032;-70
2023/06/19 05:20:43;;;;;;;1999.90;999.90;;;17.30;99.90;;;;;;4968639;28;20023;-70
2023/06/19 05:23:09;;;;;;;1999.90;999.90;;;17.30;99.90;;;;;;4977068;28;20505;-70
2023/06/19 05:25:34;;;;;;;1999.90;999.90;;;17.30;99.90;;;;;;4976521;28;20043;-73
2023/06/19 05:28:00;;;;;;;1999.90;999.90;;;17.40;99.90;;;;;;4977472;28;20034;-73
2023/06/19 05:30:26;;;;;;;1999.90;999.90;;;17.40;99.90;;;;;;4971889;28;20037;-72
2023/06/19 05:32:51;;;;;;;1999.90;999.90;;;17.40;99.90;;;;;;4957740;29;20110;-73
2023/06/19 05:35:17;;;;;;;1999.90;999.90;;;17.40;99.90;;;;;;4960967;28;20421;-70
2023/06/19 05:37:43;;;;;;;1999.90;999.90;;;17.40;99.90;;;;;;4976812;28;20030;-73
2023/06/19 05:40:10;;;;;;;1999.90;999.90;;;17.40;99.90;;;;;;4976682;28;20027;-73
2023/06/19 05:42:36;;;;;;;1999.90;999.90;;;17.50;99.90;;;;;;4947367;28;20063;-69
2023/06/19 05:45:05;;;;;;;1999.90;999.90;;;17.50;99.90;;;;;;4940486;29;20433;-70
2023/06/19 05:47:31;;;;;;;1999.90;999.90;;;17.50;99.90;;;;;;4956042;28;20119;-69
2023/06/19 05:49:59;;;;;;;1999.90;999.90;;;17.50;99.90;;;;;;4973698;28;20111;-72
2023/06/19 05:52:25;;;;;;;1999.90;999.90;;;17.50;99.90;;;;;;4926202;28;20550;-72
2023/06/19 05:54:53;;;;;;;1999.90;999.90;;;17.50;99.90;;;;;;4957044;29;20098;-73
2023/06/19 05:57:20;;;;;;;1999.90;999.90;;;17.40;99.90;;;;;;4970393;28;20047;-69
2023/06/19 05:59:47;;;;;;;1999.90;999.90;;;17.50;99.90;;;;;;4956651;29;20022;-71
2023/06/19 06:02:13;;;;;;;1999.90;999.90;;;17.50;99.90;;;;;;4963443;28;20123;-70
2023/06/19 06:04:39;;;;;;;1999.90;999.90;;;17.60;99.90;;;;;;4946030;28;20628;-72
2023/06/19 06:07:05;;;;;;;1999.90;999.90;;;17.60;99.90;;;;;;4957371;28;20039;-70
2023/06/19 06:09:30;;;;;;;1999.90;999.90;;;17.60;99.90;;;;;;4959027;28;20066;-73
2023/06/19 06:11:56;;;;;;;1999.90;999.90;;;17.50;99.90;;;;;;4956975;28;20035;-70
2023/06/19 06:14:23;;;;;;;1999.90;999.90;;;17.60;99.90;;;;;;4956278;28;20027;-70
2023/06/19 06:16:48;;;;;;;1999.90;999.90;;;17.70;99.90;;;;;;4957105;28;20486;-73
2023/06/19 06:19:14;;;;;;;1999.90;999.90;;;17.90;99.90;;;;;;4955635;28;20023;-72
2023/06/19 06:21:40;;;;;;;1999.90;999.90;;;17.90;99.90;;;;;;4967857;28;20450;-70
2023/06/19 06:24:06;;;;;;;1999.90;999.90;;;17.90;99.90;;;;;;4968098;28;20070;-69
2023/06/19 06:26:33;;;;;;;1999.90;999.90;;;17.90;99.90;;;;;;4974875;28;20474;-69
2023/06/19 06:28:58;;;;;;;1999.90;999.90;;;18.00;99.90;;;;;;4966732;28;20027;-72
2023/06/19 06:31:24;;;;;;;1999.90;999.90;;;18.00;99.90;;;;;;4961976;28;20553;-72
2023/06/19 06:33:50;;;;;;;1999.90;999.90;;;18.10;99.90;;;;;;4957038;28;20042;-70
2023/06/19 06:36:15;;;;;;;1999.90;999.90;;;18.10;99.90;;;;;;4967698;28;20043;-70
2023/06/19 06:38:41;;;;;;;1999.90;999.90;;;18.10;99.90;;;;;;4964069;28;20042;-69
2023/06/19 06:41:08;;;;;;;1999.90;999.90;;;18.10;99.90;;;;;;4968730;28;20035;-69
2023/06/19 06:43:33;;;;;;;1999.90;999.90;;;18.10;99.90;;;;;;4968100;28;20542;-72
2023/06/19 06:45:59;;;;;;;1999.90;999.90;;;18.10;99.90;;;;;;4965205;28;20106;-69
2023/06/19 06:48:26;;;;;;;1999.90;999.90;;;18.10;99.90;;;;;;4950055;28;20050;-69
2023/06/19 06:50:58;;;;;;;1999.90;999.90;;;18.20;99.90;;;;;;4953677;28;20470;-69
2023/06/19 06:53:25;;;;;;;1999.90;999.90;;;18.10;99.90;;;;;;4958708;28;20062;-69
2023/06/19 06:55:51;;;;;;;1999.90;999.90;;;18.00;99.90;;;;;;4954927;28;20035;-72
2023/06/19 06:58:18;;;;;;;1999.90;999.90;;;18.10;99.90;;;;;;4951470;28;20020;-72
2023/06/19 07:00:44;;;;;;;1999.90;999.90;;;17.90;99.90;;;;;;4950778;28;20122;-69
2023/06/19 07:03:10;;;;;;;1999.90;999.90;;;18.00;99.90;;;;;;4935864;29;20505;-69
2023/06/19 07:05:35;;;;;;;1999.90;999.90;;;18.00;99.90;;;;;;4953225;28;20498;-69
2023/06/19 07:08:02;;;;;;;1999.90;999.90;;;18.10;99.90;;;;;;4952960;28;20129;-72
2023/06/19 07:10:27;;;;;;;1999.90;999.90;;;18.10;99.90;;;;;;4949112;28;20031;-72
2023/06/19 07:12:53;;;;;;;1999.90;999.90;;;18.10;99.90;;;;;;4952365;28;20498;-69
2023/06/19 07:15:19;;;;;;;1999.90;999.90;;;18.10;99.90;;;;;;4953117;28;20046;-71
2023/06/19 07:17:45;;;;;;;1999.90;999.90;;;18.00;99.90;;;;;;4951864;28;20039;-68
2023/06/19 07:20:11;;;;;;;1999.90;999.90;;;18.00;99.90;;;;;;4950820;28;20039;-68
2023/06/19 07:22:37;;;;;;;1999.90;999.90;;;18.00;99.90;;;;;;4934459;29;20038;-68
2023/06/19 07:25:03;;;;;;;1999.90;999.90;;;18.00;99.90;;;;;;4951614;28;20178;-68
2023/06/19 07:27:30;;;;;;;1999.90;999.90;;;18.00;99.90;;;;;;4956711;28;20027;-68
2023/06/19 07:29:55;;;;;;;1999.90;999.90;;;18.20;99.90;;;;;;4950169;28;20042;-68
2023/06/19 07:32:21;;;;;;;1999.90;999.90;;;18.40;99.90;;;;;;4951369;28;20039;-68
2023/06/19 07:34:47;;;;;;;1999.90;999.90;;;18.60;99.90;;;;;;4951085;28;20090;-71
2023/06/19 07:37:17;;;;;;;1999.90;999.90;;;18.80;99.90;;;;;;4950745;28;20106;-71
2023/06/19 07:39:46;;;;;;;1999.90;999.90;;;18.90;99.90;;;;;;4955507;28;20403;-68
2023/06/19 07:42:13;;;;;;;1999.90;999.90;;;19.10;99.90;;;;;;4948547;28;20024;-70
2023/06/19 07:44:39;;;;;;;1999.90;999.90;;;19.00;99.90;;;;;;4950797;28;20031;-70
2023/06/19 07:47:05;;;;;;;1999.90;999.90;;;19.10;99.90;;;;;;4951811;28;20050;-69
2023/06/19 07:49:30;;;;;;;1999.90;999.90;;;19.10;99.90;;;;;;4952004;28;20752;-69
2023/06/19 07:51:56;;;;;;;1999.90;999.90;;;19.10;99.90;;;;;;4951150;28;20138;-69
2023/06/19 07:54:22;;;;;;;1999.90;999.90;;;19.00;99.90;;;;;;4951158;28;20143;-69
2023/06/19 07:56:47;;;;;;;1999.90;999.90;;;18.90;99.90;;;;;;4959235;28;20038;-69
2023/06/19 07:59:14;;;;;;;1999.90;999.90;;;18.90;99.90;;;;;;4952670;28;20027;-70
2023/06/19 08:01:39;;;;;;;1999.90;999.90;;;18.90;99.90;;;;;;4955154;28;20385;-69
2023/06/19 08:04:06;;;;;;;1999.90;999.90;;;19.10;99.90;;;;;;4949248;28;20027;-69
2023/06/19 08:06:31;;;;;;;1999.90;999.90;;;19.40;99.90;;;;;;4950470;28;20030;-69
2023/06/19 08:08:57;;;;;;;1999.90;999.90;;;19.50;99.90;;;;;;4952249;28;20404;-69
2023/06/19 08:11:23;;;;;;;1999.90;999.90;;;19.60;99.90;;;;;;4950876;28;20087;-70
2023/06/19 08:13:49;;;;;;;1999.90;999.90;;;19.70;99.90;;;;;;4953526;28;20787;-72
2023/06/19 08:16:14;;;;;;;1999.90;999.90;;;20.30;99.90;;;;;;4961094;28;20041;-73
2023/06/19 08:18:40;;;;;;;1999.90;999.90;;;20.50;99.90;;;;;;4960182;28;20034;-70
2023/06/19 08:21:05;;;;;;;1999.90;999.90;;;20.40;99.90;;;;;;4950667;28;20027;-70
2023/06/19 08:23:31;;;;;;;1999.90;999.90;;;20.20;99.90;;;;;;4950677;28;20027;-70
2023/06/19 08:25:57;;;;;;;1999.90;999.90;;;19.80;99.90;;;;;;4955531;28;20065;-70
2023/06/19 08:28:23;;;;;;;1999.90;999.90;;;19.80;99.90;;;;;;4951030;29;20055;-72
2023/06/19 08:30:49;;;;;;;1999.90;999.90;;;19.80;99.90;;;;;;4951642;28;20574;-70
2023/06/19 08:33:14;;;;;;;1999.90;999.90;;;19.50;99.90;;;;;;4949799;28;20068;-70
2023/06/19 08:35:40;;;;;;;1999.90;999.90;;;19.20;99.90;;;;;;4954975;28;20102;-71
2023/06/19 08:38:06;;;;;;;1999.90;999.90;;;19.00;99.90;;;;;;4948902;28;20473;-71
2023/06/19 08:40:32;;;;;;;1999.90;999.90;;;18.80;99.90;;;;;;4939862;28;20034;-74
2023/06/19 08:42:58;;;;;;;1999.90;999.90;;;18.80;99.90;;;;;;4951240;28;20027;-74
2023/06/19 08:45:26;;;;;;;1999.90;999.90;;;18.70;99.90;;;;;;4951659;28;20402;-71
2023/06/19 08:48:03;;;;;;;1999.90;999.90;;;18.70;99.90;;;;;;4950723;28;20043;-71
2023/06/19 08:50:32;;;;;;;1999.90;999.90;;;18.60;99.90;;;;;;4950152;28;20039;-71
2023/06/19 08:52:58;;;;;;;1999.90;999.90;;;18.50;99.90;;;;;;4952198;28;20063;-75
2023/06/19 08:55:24;;;;;;;1999.90;999.90;;;18.60;99.90;;;;;;4968562;28;20120;-76
2023/06/19 08:57:51;;;;;;;1999.90;999.90;;;18.60;99.90;;;;;;4960456;28;20533;-70
2023/06/19 09:00:25;;;;;;;1999.90;999.90;;;18.60;99.90;;;;;;4949857;28;20030;-71
2023/06/19 09:02:51;;;;;;;1999.90;999.90;;;18.60;99.90;;;;;;4961032;28;20371;-71
2023/06/19 09:05:18;;;;;;;1999.90;999.90;;;18.60;99.90;;;;;;4951085;28;20035;-76
2023/06/19 09:07:53;;;;;;;1999.90;999.90;;;18.70;99.90;;;;;;4933521;29;20039;-76
2023/06/19 09:10:19;;;;;;;1999.90;999.90;;;18.70;99.90;;;;;;4950786;28;20147;-71
2023/06/19 09:12:57;;;;;;;1999.90;999.90;;;18.90;99.90;;;;;;4957929;28;20450;-71
2023/06/19 09:15:23;;;;;;;1999.90;999.90;;;18.90;99.90;;;;;;4953109;28;20038;-71
2023/06/19 09:18:20;;;;;;;1999.90;999.90;;;19.00;99.90;;;;;;4949553;28;20443;-71
2023/06/19 09:20:47;;;;;;;1999.90;999.90;;;19.10;99.90;;;;;;4952239;28;20035;-76
2023/06/19 09:23:13;;;;;;;1999.90;999.90;;;19.10;99.90;;;;;;4951986;28;20027;-71
2023/06/19 09:25:49;;;;;;;1999.90;999.90;;;19.30;99.90;;;;;;4933529;28;20032;-71
2023/06/19 09:28:19;;;;;;;1999.90;999.90;;;19.40;99.90;;;;;;4953125;28;20046;-72
2023/06/19 09:30:59;;;;;;;1999.90;999.90;;;19.60;99.90;;;;;;4950908;28;20035;-72
2023/06/19 09:33:29;;;;;;;1999.90;999.90;;;19.60;99.90;;;;;;4950895;28;20070;-75
2023/06/19 09:35:57;;;;;;;1999.90;999.90;;;19.60;99.90;;;;;;4961487;28;20023;-71
2023/06/19 09:38:26;;;;;;;1999.90;999.90;;;19.60;99.90;;;;;;4949839;28;20031;-72
2023/06/19 09:40:53;;;;;;;1999.90;999.90;;;19.70;99.90;;;;;;4956514;28;20699;-71
2023/06/19 09:43:23;;;;;;;1999.90;999.90;;;19.60;99.90;;;;;;4954396;28;20110;-71
2023/06/19 09:45:52;;;;;;;1999.90;999.90;;;19.40;99.90;;;;;;4953010;28;20038;-75
2023/06/19 09:48:26;;;;;;;1999.90;999.90;;;19.50;99.90;;;;;;4956779;28;20053;-71
2023/06/19 09:50:58;;;;;;;1999.90;999.90;;;19.50;99.90;;;;;;4952628;28;20031;-71
2023/06/19 09:53:24;;;;;;;1999.90;999.90;;;19.60;99.90;;;;;;4954391;28;20035;-72
2023/06/19 09:55:50;;;;;;;1999.90;999.90;;;19.70;99.90;;;;;;4955770;28;20490;-72
2023/06/19 09:58:20;;;;;;;1999.90;999.90;;;19.70;99.90;;;;;;4955364;28;20074;-73
2023/06/19 10:00:47;;;;;;;1999.90;999.90;;;19.80;99.90;;;;;;4953038;28;20039;-74
2023/06/19 10:03:14;;;;;;;1999.90;999.90;;;19.80;99.90;;;;;;4958681;28;20038;-70
2023/06/19 10:05:40;;;;;;;1999.90;999.90;;;20.10;99.90;;;;;;4946610;28;20046;-70
2023/06/19 10:08:06;;;;;;;1999.90;999.90;;;20.30;99.90;;;;;;4961938;28;20114;-70
2023/06/19 10:10:34;;;;;;;1999.90;999.90;;;20.20;99.90;;;;;;4952733;28;20061;-72
2023/06/19 10:13:11;;;;;;;1999.90;999.90;;;20.30;99.90;;;;;;4955715;28;20097;-73
2023/06/19 10:15:43;;;;;;;1999.90;999.90;;;20.60;99.90;;;;;;4953470;28;20027;-70
2023/06/19 10:18:16;;;;;;;1999.90;999.90;;;20.90;99.90;;;;;;4955708;28;20410;-71
2023/06/19 10:20:43;;;;;;;1999.90;999.90;;;21.40;99.90;;;;;;4953282;28;20023;-71
2023/06/19 10:23:20;;;;;;;1999.90;999.90;;;23.20;99.90;;;;;;4953206;28;20033;-73
2023/06/19 10:25:53;;;;;;;1999.90;999.90;;;24.40;99.90;;;;;;4949619;28;20031;-73
2023/06/19 10:28:24;;;;;;;1999.90;999.90;;;25.20;99.90;;;;;;4945971;28;20058;-71
2023/06/19 10:30:54;;;;;;;1999.90;999.90;;;25.10;99.90;;;;;;4951520;28;20106;-73
2023/06/19 10:33:20;;;;;;;1999.90;999.90;;;24.40;99.90;;;;;;4954529;28;20409;-73
2023/06/19 10:35:46;;;;;;;1999.90;999.90;;;23.60;99.90;;;;;;4952929;28;20031;-73
2023/06/19 10:38:15;;;;;;;1999.90;999.90;;;22.90;99.90;;;;;;4952623;28;20503;-73
2023/06/19 10:40:41;;;;;;;1999.90;999.90;;;22.50;99.90;;;;;;4952622;28;20023;-71
2023/06/19 10:43:06;;;;;;;1999.90;999.90;;;22.50;99.90;;;;;;4952418;28;20038;-72
2023/06/19 10:45:32;;;;;;;1999.90;999.90;;;22.40;99.90;;;;;;4952670;28;20310;-71
2023/06/19 10:48:02;;;;;;;1999.90;999.90;;;22.50;99.90;;;;;;4959804;28;20067;-73
2023/06/19 10:50:28;;;;;;;1999.90;999.90;;;22.50;99.90;;;;;;4950829;28;20145;-74
2023/06/19 10:52:57;;;;;;;1999.90;999.90;;;22.70;99.90;;;;;;4952124;28;20126;-74
2023/06/19 10:55:22;;;;;;;1999.90;999.90;;;22.90;99.90;;;;;;4951595;28;20031;-72
2023/06/19 10:57:49;;;;;;;1999.90;999.90;;;22.90;99.90;;;;;;4950914;28;20047;-72
2023/06/19 11:00:33;;;;;;;1999.90;999.90;;;22.80;99.90;;;;;;4948378;28;20031;-72
2023/06/19 11:02:58;;;;;;;1999.90;999.90;;;22.80;99.90;;;;;;4947097;28;20031;-75
2023/06/19 11:05:26;;;;;;;1999.90;999.90;;;22.90;99.90;;;;;;4950686;28;20387;-72
2023/06/19 11:07:57;;;;;;;1999.90;999.90;;;22.60;99.90;;;;;;4958179;28;20056;-72
2023/06/19 11:10:24;;;;;;;1999.90;999.90;;;22.50;99.90;;;;;;4957192;28;20039;-72
2023/06/19 11:12:54;;;;;;;1999.90;999.90;;;22.40;99.90;;;;;;4952062;28;20034;-72
2023/06/19 11:15:20;;;;;;;1999.90;999.90;;;22.40;99.90;;;;;;4951924;28;20038;-75
2023/06/19 11:17:45;;;;;;;1999.90;999.90;;;22.20;99.90;;;;;;4951385;28;20403;-75
2023/06/19 11:20:13;;;;;;;1999.90;999.90;;;22.20;99.90;;;;;;4933552;28;20042;-72
2023/06/19 11:22:40;;;;;;;1999.90;999.90;;;22.40;99.90;;;;;;4951783;28;20075;-72
2023/06/19 11:25:07;;;;;;;1999.90;999.90;;;22.50;99.90;;;;;;4951747;28;20024;-72
2023/06/19 11:27:34;;;;;;;1999.90;999.90;;;22.90;99.90;;;;;;4953020;28;20035;-72
2023/06/19 11:30:04;;;;;;;1999.90;999.90;;;23.30;99.90;;;;;;4951486;28;20051;-76
2023/06/19 11:32:40;;;;;;;1999.90;999.90;;;23.60;99.90;;;;;;4947010;28;20023;-73
2023/06/19 11:35:08;;;;;;;1999.90;999.90;;;23.80;99.90;;;;;;4950819;28;20054;-73
2023/06/19 11:37:34;;;;;;;1999.90;999.90;;;24.40;99.90;;;;;;4951394;28;20039;-73
2023/06/19 11:40:00;;;;;;;1999.90;999.90;;;26.10;99.90;;;;;;4952397;28;20023;-73
2023/06/19 11:42:26;;;;;;;1999.90;999.90;;;27.30;99.90;;;;;;4952586;28;20410;-77
2023/06/19 11:45:03;;;;;;;1999.90;999.90;;;28.00;99.90;;;;;;4951426;28;20031;-78
2023/06/19 11:47:36;;;;;;;1999.90;999.90;;;28.70;99.90;;;;;;4951539;28;20046;-73
2023/06/19 11:50:04;;;;;;;1999.90;999.90;;;28.70;99.90;;;;;;4949263;28;20114;-71
2023/06/19 11:52:30;;;;;;;1999.90;999.90;;;28.50;99.90;;;;;;4952422;28;20058;-74
2023/06/19 11:54:56;;;;;;;1999.90;999.90;;;27.70;99.90;;;;;;4952140;28;20501;-77
2023/06/19 11:57:21;;;;;;;1999.90;999.90;;;27.10;99.90;;;;;;4951409;28;20023;-77